Portada
METAR-TAF:

METAR-TAF

Aeroports :

Santa Cruz, Rio de Janeiro, Brasil

latitud: 22-56S, longitud: 043-43W, altitud: 3 m

Observació

L'informe es va fer fa 1 hora i 2 minuts, a les 04:00 UTC
Vent 2 kt del Nord/Nord-Est
Temperatura 17°C
Humitat 94%
Pressió 1024 hPa
Visibilitat 10 km o més
sense núvols per sota de 1500 mi sense presència de cumulonimbus.

METAR: SBSC 090400Z 02002KT CAVOK 17/16 Q1024

Hora: 02:02 (05:02 UTC)

Pronòstic

L'informe es va fer fa 8 hores i 2 minuts, a les 21:00 UTC
Pronòstic vàlid del 09 a les 00 UTC al 09 a les 12 UTC
Vent 5 kt del Oest/Sud-Oest
Visibilitat 10 km o més
sense núvols per sota de 1500 mi sense presència de cumulonimbus.
Evolucionant progressivament
l' 09 a les 03 UTC al 09 a les 05 UTC
Vent 7 kt del Nord/Nord-Oest

TAF: SBSC 082100Z 0900/0912 24005KT CAVOK TN15/0904Z TX23/0912Z BECMG 0903/0905 34007KT RMK PEG

Observacions i pronòstics meteorològics de més de 4000 aeroports (METAR i TAF).

Les estacions disponibles són els punts grocs i vermells al mapa.

Posi el ratolí al punt desitjat per veure el nom de l'estació.

Feu clic per veure les observacions i els pronòstics meteorològics.

Per canviar el mapa: feu clic els botons verds amb una creu de color negre per apropar; al botó verd amb un guió per allunyar la imatge; o en les fletxes verdes per a mapes adjacents.


METAR-TAF: